Time;durP1;ratioP1;P1;durP2;ratioP2;P2;SDS_P1;SDS_P2;PMS_P1;PMS_P2;Temp;Humidity;BMP_temperature;BMP_pressure;BME280_temperature;BME280_humidity;BME280_pressure;Samples;Min_cycle;Max_cycle;Signal;HPM_P1;HPM_P2
2022/03/13 00:01:58;;;;;;;;;;;102.40;1152.00;;;;;;5017042;28;19944;-61
2022/03/13 00:04:24;;;;;;;;;;;102.50;1177.60;;;;;;5017084;28;20024;-62
2022/03/13 00:06:50;;;;;;;;;;;102.40;1177.60;;;;;;5017137;28;19914;-60
2022/03/13 00:09:19;;;;;;;;;;;102.40;1177.60;;;;;;5017142;28;19910;-61
2022/03/13 00:11:45;;;;;;;;;;;102.40;1152.00;;;;;;5016900;28;19996;-61
2022/03/13 00:14:13;;;;;;;;;;;77.70;1152.00;;;;;;5016716;28;19949;-61
2022/03/13 00:16:38;;;;;;;;;;;77.70;1177.60;;;;;;5016877;28;20008;-61
2022/03/13 00:19:06;;;;;;;;;;;102.40;1177.60;;;;;;5017035;28;19948;-61
2022/03/13 00:21:34;;;;;;;;;;;102.40;1177.60;;;;;;5016865;28;19936;-61
2022/03/13 00:23:59;;;;;;;;;;;102.40;1177.60;;;;;;5016785;28;19941;-61
2022/03/13 00:26:25;;;;;;;;;;;77.70;1177.60;;;;;;5016592;28;20374;-61
2022/03/13 00:28:51;;;;;;;;;;;77.70;1177.60;;;;;;5015442;28;19967;-61
2022/03/13 00:31:16;;;;;;;;;;;77.60;1177.60;;;;;;5016891;28;19920;-60
2022/03/13 00:33:42;;;;;;;;;;;77.60;1177.60;;;;;;5016699;28;20348;-61
2022/03/13 00:36:08;;;;;;;;;;;77.50;1177.60;;;;;;5016720;28;19910;-61
2022/03/13 00:38:33;;;;;;;;;;;77.50;1177.60;;;;;;5016855;28;19913;-60
2022/03/13 00:40:59;;;;;;;;;;;77.40;1203.20;;;;;;5016225;28;19963;-61
2022/03/13 00:43:25;;;;;;;;;;;77.40;1203.20;;;;;;5016701;28;19917;-61
2022/03/13 00:45:51;;;;;;;;;;;77.40;1203.20;;;;;;5016286;28;19916;-61
2022/03/13 00:48:17;;;;;;;;;;;77.40;1203.20;;;;;;5016255;28;19914;-61
2022/03/13 00:50:43;;;;;;;;;;;77.40;1203.20;;;;;;5016381;28;19963;-60
2022/03/13 00:53:08;;;;;;;;;;;77.40;1203.20;;;;;;5016299;28;19937;-60
2022/03/13 00:55:34;;;;;;;;;;;77.40;1203.20;;;;;;5016307;28;20252;-61
2022/03/13 00:58:00;;;;;;;;;;;77.40;1203.20;;;;;;5016497;28;20374;-59
2022/03/13 01:00:25;;;;;;;;;;;77.30;1203.20;;;;;;5016211;28;19909;-58
2022/03/13 01:02:51;;;;;;;;;;;77.40;1203.20;;;;;;5015842;28;19921;-58
2022/03/13 01:05:21;;;;;;;;;;;77.40;1203.20;;;;;;5016009;28;19920;-58
2022/03/13 01:07:46;;;;;;;;;;;77.30;1203.20;;;;;;5016015;28;19921;-59
2022/03/13 01:10:12;;;;;;;;;;;77.30;1228.80;;;;;;5015882;28;19910;-58
2022/03/13 01:12:38;;;;;;;;;;;77.20;1228.80;;;;;;5015714;28;19910;-58
2022/03/13 01:15:04;;;;;;;;;;;77.30;1228.80;;;;;;5015814;28;19910;-59
2022/03/13 01:17:29;;;;;;;;;;;77.30;1228.80;;;;;;5015351;28;20313;-60
2022/03/13 01:19:55;;;;;;;;;;;77.30;1228.80;;;;;;5015673;28;19910;-61
2022/03/13 01:22:21;;;;;;;;;;;77.20;1228.80;;;;;;5015709;28;20364;-62
2022/03/13 01:24:47;;;;;;;;;;;77.20;1254.40;;;;;;5015794;28;19920;-62
2022/03/13 01:27:13;;;;;;;;;;;77.20;1254.40;;;;;;5015724;28;19910;-61
2022/03/13 01:29:40;;;;;;;;;;;77.30;1254.40;;;;;;5015487;28;19922;-62
2022/03/13 01:32:07;;;;;;;;;;;77.30;1254.40;;;;;;5015482;28;20348;-61
2022/03/13 01:34:32;;;;;;;;;;;77.20;1254.40;;;;;;5015446;28;20323;-58
2022/03/13 01:36:58;;;;;;;;;;;77.20;1254.40;;;;;;5015465;28;19909;-62
2022/03/13 01:39:24;;;;;;;;;;;77.10;1280.00;;;;;;5015541;28;19956;-65
2022/03/13 01:41:49;;;;;;;;;;;77.20;1280.00;;;;;;5015652;28;19921;-64
2022/03/13 01:44:15;;;;;;;;;;;77.20;1254.40;;;;;;5015504;28;19910;-63
2022/03/13 01:46:40;;;;;;;;;;;77.10;1254.40;;;;;;5015362;28;19941;-64
2022/03/13 01:49:07;;;;;;;;;;;77.00;1280.00;;;;;;5015473;28;19914;-65
2022/03/13 01:51:33;;;;;;;;;;;77.00;1280.00;;;;;;5014570;28;19964;-57
2022/03/13 01:54:00;;;;;;;;;;;77.10;1280.00;;;;;;5034695;28;19945;-57
2022/03/13 01:56:26;;;;;;;;;;;77.10;1280.00;;;;;;5034796;28;19909;-58
2022/03/13 01:58:53;;;;;;;;;;;77.00;1280.00;;;;;;5034956;28;20446;-58
2022/03/13 02:01:19;;;;;;;;;;;77.00;1280.00;;;;;;5034709;28;20377;-58
2022/03/13 02:03:45;;;;;;;;;;;76.90;1280.00;;;;;;5034588;28;19921;-57
2022/03/13 02:06:11;;;;;;;;;;;77.00;1280.00;;;;;;5034510;28;19910;-57
2022/03/13 02:08:40;;;;;;;;;;;77.00;1280.00;;;;;;5034851;28;19913;-57
2022/03/13 02:11:06;;;;;;;;;;;76.90;1280.00;;;;;;5034599;28;19910;-58
2022/03/13 02:13:33;;;;;;;;;;;76.90;1280.00;;;;;;5034217;28;19909;-57
2022/03/13 02:15:58;;;;;;;;;;;76.90;1280.00;;;;;;5034721;28;19978;-58
2022/03/13 02:18:24;;;;;;;;;;;77.00;1280.00;;;;;;5034678;28;20287;-57
2022/03/13 02:20:49;;;;;;;;;;;77.00;1254.40;;;;;;5034532;28;19913;-58
2022/03/13 02:23:15;;;;;;;;;;;77.00;1254.40;;;;;;5034551;28;20263;-57
2022/03/13 02:25:40;;;;;;;;;;;77.00;1254.40;;;;;;5034380;28;20355;-58
2022/03/13 02:28:06;;;;;;;;;;;76.90;1254.40;;;;;;5033418;28;20385;-58
2022/03/13 02:30:33;;;;;;;;;;;76.80;1254.40;;;;;;5034588;28;19909;-58
2022/03/13 02:32:58;;;;;;;;;;;76.90;1254.40;;;;;;5034368;28;20000;-57
2022/03/13 02:35:24;;;;;;;;;;;76.90;1254.40;;;;;;5034228;28;19971;-58
2022/03/13 02:37:49;;;;;;;;;;;76.80;1254.40;;;;;;5034400;28;19917;-58
2022/03/13 02:40:23;;;;;;;;;;;76.80;1254.40;;;;;;5034378;28;19917;-57
2022/03/13 02:42:52;;;;;;;;;;;76.80;1254.40;;;;;;5034456;28;19921;-57
2022/03/13 02:45:27;;;;;;;;;;;76.80;1280.00;;;;;;5034268;28;19909;-58
2022/03/13 02:47:53;;;;;;;;;;;76.80;1280.00;;;;;;5034215;28;19917;-58
2022/03/13 02:50:19;;;;;;;;;;;76.80;1280.00;;;;;;5034002;28;19909;-57
2022/03/13 02:52:45;;;;;;;;;;;52.10;1280.00;;;;;;5034318;28;19916;-57
2022/03/13 02:55:10;;;;;;;;;;;52.00;1254.40;;;;;;5033997;28;20283;-57
2022/03/13 02:57:36;;;;;;;;;;;52.10;1280.00;;;;;;5033970;28;19995;-57
2022/03/13 03:00:02;;;;;;;;;;;76.80;1254.40;;;;;;5034002;28;19910;-57
2022/03/13 03:02:28;;;;;;;;;;;52.10;1280.00;;;;;;5032044;28;20351;-58
2022/03/13 03:04:55;;;;;;;;;;;52.00;1280.00;;;;;;5034020;28;19949;-58
2022/03/13 03:07:21;;;;;;;;;;;52.00;1280.00;;;;;;5033840;28;19909;-57
2022/03/13 03:09:47;;;;;;;;;;;52.00;1280.00;;;;;;5034058;28;19913;-58
2022/03/13 03:12:13;;;;;;;;;;;52.00;1305.60;;;;;;5033791;28;19917;-57
2022/03/13 03:14:38;;;;;;;;;;;52.00;1280.00;;;;;;5033808;28;19909;-58
2022/03/13 03:17:05;;;;;;;;;;;51.90;1305.60;;;;;;5033899;28;19936;-57
2022/03/13 03:19:31;;;;;;;;;;;52.00;1305.60;;;;;;5034055;28;19909;-58
2022/03/13 03:21:56;;;;;;;;;;;52.00;1305.60;;;;;;5033835;28;19928;-59
2022/03/13 03:24:23;;;;;;;;;;;51.90;1305.60;;;;;;5033877;28;19909;-59
2022/03/13 03:26:49;;;;;;;;;;;51.90;1305.60;;;;;;5033645;28;19913;-57
2022/03/13 03:29:14;;;;;;;;;;;51.90;1305.60;;;;;;5033796;28;19917;-57
2022/03/13 03:31:44;;;;;;;;;;;52.00;1305.60;;;;;;5033890;28;19909;-58
2022/03/13 03:34:11;;;;;;;;;;;51.90;1305.60;;;;;;5033937;28;20240;-58
2022/03/13 03:36:44;;;;;;;;;;;51.90;1305.60;;;;;;5034121;28;19983;-58
2022/03/13 03:39:10;;;;;;;;;;;51.90;1305.60;;;;;;5034979;28;19909;-58
2022/03/13 03:41:36;;;;;;;;;;;51.90;1305.60;;;;;;5037243;28;19944;-57
2022/03/13 03:44:02;;;;;;;;;;;51.90;1305.60;;;;;;5037599;28;19915;-57
2022/03/13 03:46:27;;;;;;;;;;;51.80;1305.60;;;;;;5037120;28;19955;-58
2022/03/13 03:48:53;;;;;;;;;;;51.80;1305.60;;;;;;5037414;28;19909;-57
2022/03/13 03:51:18;;;;;;;;;;;51.80;1305.60;;;;;;5037327;28;19910;-57
2022/03/13 03:53:44;;;;;;;;;;;51.80;1331.20;;;;;;5037279;28;19909;-58
2022/03/13 03:56:09;;;;;;;;;;;51.80;1305.60;;;;;;5037105;28;19916;-57
2022/03/13 03:58:35;;;;;;;;;;;51.70;1305.60;;;;;;5037194;28;20358;-57
2022/03/13 04:01:00;;;;;;;;;;;51.70;1305.60;;;;;;5037051;28;19939;-57
2022/03/13 04:03:26;;;;;;;;;;;51.70;1331.20;;;;;;5036769;28;19925;-58
2022/03/13 04:05:51;;;;;;;;;;;51.80;1331.20;;;;;;5037085;28;19909;-57
2022/03/13 04:08:17;;;;;;;;;;;51.70;1331.20;;;;;;5036779;28;19945;-58
2022/03/13 04:10:43;;;;;;;;;;;51.70;1331.20;;;;;;5037028;28;20343;-58
2022/03/13 04:13:08;;;;;;;;;;;51.60;1331.20;;;;;;5036730;28;19909;-57
2022/03/13 04:15:34;;;;;;;;;;;51.70;1356.80;;;;;;5037115;28;19909;-58
2022/03/13 04:18:00;;;;;;;;;;;51.70;1356.80;;;;;;5036919;28;19909;-58
2022/03/13 04:20:25;;;;;;;;;;;51.70;1356.80;;;;;;5036574;28;19909;-58
2022/03/13 04:22:51;;;;;;;;;;;51.70;1356.80;;;;;;5036798;28;19909;-58
2022/03/13 04:25:16;;;;;;;;;;;51.60;1331.20;;;;;;5036589;28;19960;-57
2022/03/13 04:27:44;;;;;;;;;;;51.60;1356.80;;;;;;5036455;28;19962;-58
2022/03/13 04:30:09;;;;;;;;;;;51.70;1356.80;;;;;;5036655;28;19916;-58
2022/03/13 04:32:35;;;;;;;;;;;51.70;1356.80;;;;;;5036435;28;19909;-57
2022/03/13 04:35:01;;;;;;;;;;;51.60;1356.80;;;;;;5036252;28;19916;-57
2022/03/13 04:37:27;;;;;;;;;;;51.60;1356.80;;;;;;5036032;28;19999;-57
2022/03/13 04:39:53;;;;;;;;;;;51.60;1356.80;;;;;;5036484;28;19996;-58
2022/03/13 04:42:19;;;;;;;;;;;51.70;1356.80;;;;;;5036277;28;20016;-58
2022/03/13 04:44:45;;;;;;;;;;;51.70;1382.40;;;;;;5036125;28;19909;-57
2022/03/13 04:47:10;;;;;;;;;;;51.60;1382.40;;;;;;5036202;28;19909;-58
2022/03/13 04:49:36;;;;;;;;;;;51.60;1382.40;;;;;;5036558;28;19921;-57
2022/03/13 04:52:02;;;;;;;;;;;51.60;1382.40;;;;;;5035203;28;20004;-58
2022/03/13 04:54:27;;;;;;;;;;;51.60;1382.40;;;;;;5036109;28;19916;-57
2022/03/13 04:56:53;;;;;;;;;;;51.60;1382.40;;;;;;5035886;28;19944;-58
2022/03/13 04:59:18;;;;;;;;;;;51.60;1356.80;;;;;;5035883;28;19925;-58
2022/03/13 05:01:44;;;;;;;;;;;51.50;1356.80;;;;;;5035624;28;19918;-57
2022/03/13 05:04:10;;;;;;;;;;;51.50;1356.80;;;;;;5035758;28;19924;-57
2022/03/13 05:06:36;;;;;;;;;;;51.60;1382.40;;;;;;5036265;28;19910;-57
2022/03/13 05:09:05;;;;;;;;;;;51.60;1382.40;;;;;;5035604;28;19915;-59
2022/03/13 05:11:31;;;;;;;;;;;51.50;1382.40;;;;;;5035774;28;20423;-58
2022/03/13 05:13:57;;;;;;;;;;;51.50;1382.40;;;;;;5035834;28;19952;-58
2022/03/13 05:16:22;;;;;;;;;;;51.60;1382.40;;;;;;5035733;28;19909;-58
2022/03/13 05:18:48;;;;;;;;;;;51.50;1382.40;;;;;;5035764;28;20309;-57
2022/03/13 05:21:14;;;;;;;;;;;51.50;1382.40;;;;;;5035579;28;20347;-57
2022/03/13 05:23:39;;;;;;;;;;;51.50;1382.40;;;;;;5035611;28;19916;-57
2022/03/13 05:26:05;;;;;;;;;;;51.50;1356.80;;;;;;5035568;28;20279;-57
2022/03/13 05:28:30;;;;;;;;;;;51.60;1382.40;;;;;;5035422;28;20028;-57
2022/03/13 05:30:56;;;;;;;;;;;51.50;1382.40;;;;;;5035557;28;19920;-57
2022/03/13 05:33:22;;;;;;;;;;;51.50;1382.40;;;;;;5035274;28;19977;-57
2022/03/13 05:35:47;;;;;;;;;;;51.60;1382.40;;;;;;5035317;28;19909;-57
2022/03/13 05:38:13;;;;;;;;;;;51.60;1382.40;;;;;;5035385;28;19955;-57
2022/03/13 05:40:39;;;;;;;;;;;51.60;1408.00;;;;;;5035208;28;19909;-58
2022/03/13 05:43:04;;;;;;;;;;;51.70;1408.00;;;;;;5035181;28;19931;-58
2022/03/13 05:45:30;;;;;;;;;;;51.60;1408.00;;;;;;5035218;28;19916;-57
2022/03/13 05:47:58;;;;;;;;;;;51.70;1408.00;;;;;;5034921;28;19979;-57
2022/03/13 05:50:24;;;;;;;;;;;51.70;1408.00;;;;;;5034974;28;20355;-57
2022/03/13 05:52:50;;;;;;;;;;;51.70;1408.00;;;;;;5035133;28;19909;-57
2022/03/13 05:55:17;;;;;;;;;;;51.70;1408.00;;;;;;5034858;28;19909;-57
2022/03/13 05:57:43;;;;;;;;;;;51.80;1408.00;;;;;;5034884;28;19966;-57
2022/03/13 06:00:10;;;;;;;;;;;51.90;1408.00;;;;;;5034978;28;19995;-58
2022/03/13 06:02:40;;;;;;;;;;;51.90;1408.00;;;;;;5034577;28;19921;-57
2022/03/13 06:05:07;;;;;;;;;;;52.00;1408.00;;;;;;5034594;28;19909;-58
2022/03/13 06:07:32;;;;;;;;;;;52.00;1408.00;;;;;;5034275;28;20383;-58
2022/03/13 06:10:02;;;;;;;;;;;52.00;1408.00;;;;;;5034798;28;19910;-57
2022/03/13 06:12:27;;;;;;;;;;;52.00;1408.00;;;;;;5034714;28;19921;-57
2022/03/13 06:14:53;;;;;;;;;;;52.10;1382.40;;;;;;5034127;28;19913;-57
2022/03/13 06:17:18;;;;;;;;;;;52.10;1408.00;;;;;;5034760;28;20011;-57
2022/03/13 06:19:44;;;;;;;;;;;76.80;1408.00;;;;;;5034859;28;19955;-58
2022/03/13 06:22:11;;;;;;;;;;;76.90;1408.00;;;;;;5034591;28;19940;-57
2022/03/13 06:24:37;;;;;;;;;;;76.90;1382.40;;;;;;5034467;28;19913;-57
2022/03/13 06:27:02;;;;;;;;;;;76.90;1382.40;;;;;;5034520;28;19963;-58
2022/03/13 06:29:31;;;;;;;;;;;76.90;1408.00;;;;;;5034395;28;20378;-58
2022/03/13 06:31:57;;;;;;;;;;;77.00;1408.00;;;;;;5034262;28;20283;-57
2022/03/13 06:34:23;;;;;;;;;;;77.10;1382.40;;;;;;5034536;28;19909;-58
2022/03/13 06:36:48;;;;;;;;;;;77.20;1408.00;;;;;;5035028;28;19909;-58
2022/03/13 06:39:14;;;;;;;;;;;77.20;1408.00;;;;;;5034307;28;19909;-57
2022/03/13 06:41:40;;;;;;;;;;;77.20;1408.00;;;;;;5034272;28;20010;-57
2022/03/13 06:44:05;;;;;;;;;;;77.30;1382.40;;;;;;5034376;28;19915;-57
2022/03/13 06:46:32;;;;;;;;;;;77.30;1382.40;;;;;;5034340;28;19910;-64
2022/03/13 06:48:59;;;;;;;;;;;77.40;1382.40;;;;;;5033901;28;20362;-57
2022/03/13 06:51:24;;;;;;;;;;;77.50;1382.40;;;;;;5023403;28;20651;-60
2022/03/13 06:53:50;;;;;;;;;;;77.50;1356.80;;;;;;5033653;28;19917;-57
2022/03/13 06:56:15;;;;;;;;;;;77.50;1356.80;;;;;;5033798;28;19963;-58
2022/03/13 06:58:41;;;;;;;;;;;77.60;1382.40;;;;;;5033677;28;20004;-58
2022/03/13 07:01:06;;;;;;;;;;;77.70;1382.40;;;;;;5033441;28;19929;-59
2022/03/13 07:03:33;;;;;;;;;;;102.50;1664.00;;;;;;5033356;28;19928;-58
2022/03/13 07:05:58;;;;;;;;;;;128.10;1638.40;;;;;;5033700;28;19913;-62
2022/03/13 07:08:24;;;;;;;;;;;153.60;1664.00;;;;;;5033292;28;20381;-59
2022/03/13 07:10:50;;;;;;;;;;;153.80;1484.80;;;;;;5033791;28;19909;-60
2022/03/13 07:13:18;;;;;;;;;;;153.60;1331.20;;;;;;5033195;28;19913;-59
2022/03/13 07:15:44;;;;;;;;;;;153.60;1331.20;;;;;;5037221;28;19917;-59
2022/03/13 07:18:09;;;;;;;;;;;128.70;1305.60;;;;;;5037656;28;19932;-60
2022/03/13 07:20:35;;;;;;;;;;;128.70;1305.60;;;;;;5037346;28;19916;-57
2022/03/13 07:23:00;;;;;;;;;;;128.50;1331.20;;;;;;5037341;28;19963;-59
2022/03/13 07:25:26;;;;;;;;;;;128.50;1331.20;;;;;;5037522;28;19913;-59
2022/03/13 07:27:52;;;;;;;;;;;128.40;1331.20;;;;;;5037360;28;19999;-60
2022/03/13 07:30:17;;;;;;;;;;;128.50;1331.20;;;;;;5037068;28;20259;-59
2022/03/13 07:32:43;;;;;;;;;;;128.60;1356.80;;;;;;5037025;28;20014;-61
2022/03/13 07:35:10;;;;;;;;;;;128.60;1356.80;;;;;;5037559;28;20282;-61
2022/03/13 07:37:35;;;;;;;;;;;153.60;1280.00;;;;;;5036990;28;19916;-60
2022/03/13 07:40:02;;;;;;;;;;;153.60;1280.00;;;;;;5037246;28;19909;-59
2022/03/13 07:42:27;;;;;;;;;;;153.80;1254.40;;;;;;5037125;28;19921;-59
2022/03/13 07:44:53;;;;;;;;;;;154.00;1228.80;;;;;;5035628;28;19917;-60
2022/03/13 07:47:19;;;;;;;;;;;154.00;1228.80;;;;;;5035782;28;19916;-60
2022/03/13 07:49:44;;;;;;;;;;;154.20;1203.20;;;;;;5035901;28;19913;-57
2022/03/13 07:52:10;;;;;;;;;;;154.30;1177.60;;;;;;5035472;28;19914;-59
2022/03/13 07:54:35;;;;;;;;;;;154.50;1152.00;;;;;;5035824;28;19913;-59
2022/03/13 07:57:01;;;;;;;;;;;179.20;1152.00;;;;;;5036823;28;19909;-61
2022/03/13 07:59:27;;;;;;;;;;;179.30;1126.40;;;;;;5036651;28;19936;-59
2022/03/13 08:01:53;;;;;;;;;;;179.50;1100.80;;;;;;5036368;28;20382;-59
2022/03/13 08:04:19;;;;;;;;;;;179.60;1100.80;;;;;;5036060;28;20275;-59
2022/03/13 08:06:44;;;;;;;;;;;179.70;1075.20;;;;;;5035361;28;19913;-59
2022/03/13 08:09:10;;;;;;;;;;;179.90;1075.20;;;;;;5036130;28;19909;-59
2022/03/13 08:11:36;;;;;;;;;;;180.00;1049.60;;;;;;5036682;28;19909;-59
2022/03/13 08:14:02;;;;;;;;;;;180.10;998.40;;;;;;5036484;28;20361;-61
2022/03/13 08:16:28;;;;;;;;;;;204.80;998.40;;;;;;5036359;28;20350;-61
2022/03/13 08:18:54;;;;;;;;;;;205.00;998.40;;;;;;5036172;28;19919;-59
2022/03/13 08:21:19;;;;;;;;;;;205.10;972.80;;;;;;5036242;28;19926;-61
2022/03/13 08:23:45;;;;;;;;;;;205.20;947.20;;;;;;5035766;28;19913;-59
2022/03/13 08:26:11;;;;;;;;;;;205.30;947.20;;;;;;5034709;28;20023;-62
2022/03/13 08:28:44;;;;;;;;;;;205.40;947.20;;;;;;5035328;28;19920;-61
2022/03/13 08:31:10;;;;;;;;;;;205.50;921.60;;;;;;5033078;28;19935;-61
2022/03/13 08:33:36;;;;;;;;;;;205.60;870.40;;;;;;5035356;28;20016;-59
2022/03/13 08:36:02;;;;;;;;;;;230.40;870.40;;;;;;5035430;28;19920;-60
2022/03/13 08:38:28;;;;;;;;;;;230.50;870.40;;;;;;5034666;28;20493;-59
2022/03/13 08:40:54;;;;;;;;;;;230.60;819.20;;;;;;5035772;28;19917;-60
2022/03/13 08:43:21;;;;;;;;;;;230.70;768.00;;;;;;5035690;28;20011;-60
2022/03/13 08:45:47;;;;;;;;;;;230.90;742.40;;;;;;5035309;28;20267;-60
2022/03/13 08:48:13;;;;;;;;;;;230.90;768.00;;;;;;5035841;28;19910;-60
2022/03/13 08:50:39;;;;;;;;;;;231.10;742.40;;;;;;5035221;28;19931;-62
2022/03/13 08:53:05;;;;;;;;;;;231.30;870.40;;;;;;5034490;28;20004;-60
2022/03/13 08:55:30;;;;;;;;;;;256.00;768.00;;;;;;5033830;28;19948;-58
2022/03/13 08:57:56;;;;;;;;;;;256.10;716.80;;;;;;5033780;28;19913;-61
2022/03/13 09:00:24;;;;;;;;;;;256.20;665.60;;;;;;5034842;28;19909;-59
2022/03/13 09:02:50;;;;;;;;;;;256.30;665.60;;;;;;5033728;28;20375;-60
2022/03/13 09:05:15;;;;;;;;;;;256.40;665.60;;;;;;5034117;28;19996;-60
2022/03/13 09:07:41;;;;;;;;;;;256.40;640.00;;;;;;5034377;28;20315;-60
2022/03/13 09:10:07;;;;;;;;;;;256.50;614.40;;;;;;5034160;28;19913;-60
2022/03/13 09:12:33;;;;;;;;;;;256.50;614.40;;;;;;5033566;28;19920;-60
2022/03/13 09:14:59;;;;;;;;;;;256.60;614.40;;;;;;5031542;28;19910;-60
2022/03/13 09:17:25;;;;;;;;;;;256.60;614.40;;;;;;5033607;28;19925;-60
2022/03/13 09:19:51;;;;;;;;;;;256.70;588.80;;;;;;5032564;28;20276;-58
2022/03/13 09:22:18;;;;;;;;;;;256.80;588.80;;;;;;5033903;28;20020;-59
2022/03/13 09:24:45;;;;;;;;;;;256.80;588.80;;;;;;5033737;28;19979;-58
2022/03/13 09:27:11;;;;;;;;;;;256.80;588.80;;;;;;5033820;28;20251;-58
2022/03/13 09:29:37;;;;;;;;;;;256.80;614.40;;;;;;5033906;28;19955;-58
2022/03/13 09:32:02;;;;;;;;;;;256.90;614.40;;;;;;5033478;28;19948;-58
2022/03/13 09:34:28;;;;;;;;;;;256.90;588.80;;;;;;5033444;28;19913;-58
2022/03/13 09:36:54;;;;;;;;;;;281.60;640.00;;;;;;5033260;28;19913;-59
2022/03/13 09:39:20;;;;;;;;;;;281.60;665.60;;;;;;5033527;28;19952;-58
2022/03/13 09:41:45;;;;;;;;;;;281.60;691.20;;;;;;5031681;28;20287;-58
2022/03/13 09:44:11;;;;;;;;;;;281.60;665.60;;;;;;5033660;28;19909;-59
2022/03/13 09:46:39;;;;;;;;;;;281.60;665.60;;;;;;5033371;28;20378;-59
2022/03/13 09:49:05;;;;;;;;;;;281.70;665.60;;;;;;5033138;28;20008;-59
2022/03/13 09:51:30;;;;;;;;;;;281.70;665.60;;;;;;5033208;28;20000;-60
2022/03/13 09:53:57;;;;;;;;;;;281.70;665.60;;;;;;5030997;28;19952;-60
2022/03/13 09:56:23;;;;;;;;;;;281.70;665.60;;;;;;5032694;28;20007;-58
2022/03/13 09:58:48;;;;;;;;;;;281.70;665.60;;;;;;5033110;28;19996;-59
2022/03/13 10:01:14;;;;;;;;;;;281.80;665.60;;;;;;5033071;28;20009;-58
2022/03/13 10:03:40;;;;;;;;;;;281.80;665.60;;;;;;5031358;28;19925;-59
2022/03/13 10:06:06;;;;;;;;;;;281.80;640.00;;;;;;5032091;28;19913;-59
2022/03/13 10:08:32;;;;;;;;;;;282.00;640.00;;;;;;5031447;28;20279;-60
2022/03/13 10:10:59;;;;;;;;;;;282.00;640.00;;;;;;5032612;28;19916;-59
2022/03/13 10:13:46;;;;;;;;;;;282.00;640.00;;;;;;5031875;28;19913;-58
2022/03/13 10:16:22;;;;;;;;;;;281.90;614.40;;;;;;5033321;28;19914;-59
2022/03/13 10:18:48;;;;;;;;;;;282.10;614.40;;;;;;5032204;28;20283;-61
2022/03/13 10:21:16;;;;;;;;;;;282.10;614.40;;;;;;5033073;28;20358;-60
2022/03/13 10:23:42;;;;;;;;;;;282.20;614.40;;;;;;5034165;28;19920;-59
2022/03/13 10:26:08;;;;;;;;;;;282.30;614.40;;;;;;5033173;28;19913;-59
2022/03/13 10:28:37;;;;;;;;;;;282.30;588.80;;;;;;5033501;28;19920;-57
2022/03/13 10:31:03;;;;;;;;;;;282.40;563.20;;;;;;5033277;28;19913;-61
2022/03/13 10:33:44;;;;;;;;;;;282.40;563.20;;;;;;5033262;28;19916;-58
2022/03/13 10:36:11;;;;;;;;;;;282.50;563.20;;;;;;5031275;28;19909;-58
2022/03/13 10:38:37;;;;;;;;;;;282.40;588.80;;;;;;5032760;28;19956;-57
2022/03/13 10:41:09;;;;;;;;;;;282.40;588.80;;;;;;5032561;28;20028;-59
2022/03/13 10:43:37;;;;;;;;;;;282.40;588.80;;;;;;5032722;28;20659;-60
2022/03/13 10:46:04;;;;;;;;;;;282.40;588.80;;;;;;5030418;28;20330;-59
2022/03/13 10:48:36;;;;;;;;;;;282.30;588.80;;;;;;5031864;28;19996;-61
2022/03/13 10:51:07;;;;;;;;;;;282.50;691.20;;;;;;5029930;28;19917;-62
2022/03/13 10:53:32;;;;;;;;;;;307.70;1075.20;;;;;;5032832;28;19996;-63
2022/03/13 10:56:01;;;;;;;;;;;332.80;921.60;;;;;;5032332;28;20327;-62
2022/03/13 10:58:30;;;;;;;;;;;332.90;691.20;;;;;;5033404;28;19909;-58
2022/03/13 11:01:04;;;;;;;;;;;332.80;640.00;;;;;;5034184;28;19913;-61
2022/03/13 11:03:30;;;;;;;;;;;308.10;588.80;;;;;;5033881;28;19928;-59
2022/03/13 11:05:56;;;;;;;;;;;308.00;614.40;;;;;;5033962;28;19936;-61
2022/03/13 11:08:22;;;;;;;;;;;307.90;614.40;;;;;;5033861;28;19963;-59
2022/03/13 11:10:47;;;;;;;;;;;307.90;614.40;;;;;;5033698;28;20320;-59
2022/03/13 11:13:14;;;;;;;;;;;307.90;614.40;;;;;;5034029;28;19909;-59
2022/03/13 11:15:43;;;;;;;;;;;307.80;614.40;;;;;;5034005;28;19909;-58
2022/03/13 11:18:10;;;;;;;;;;;307.80;614.40;;;;;;5032256;28;19955;-58
2022/03/13 11:20:39;;;;;;;;;;;307.90;588.80;;;;;;5033902;28;19909;-59
2022/03/13 11:23:07;;;;;;;;;;;307.90;614.40;;;;;;5034638;28;19917;-59
2022/03/13 11:25:33;;;;;;;;;;;308.00;614.40;;;;;;5033843;28;19998;-61
2022/03/13 11:27:59;;;;;;;;;;;308.10;614.40;;;;;;5034015;28;19913;-61
2022/03/13 11:30:37;;;;;;;;;;;332.80;640.00;;;;;;5033862;28;19963;-61
2022/03/13 11:33:03;;;;;;;;;;;332.80;614.40;;;;;;5033873;28;19916;-58
2022/03/13 11:35:32;;;;;;;;;;;332.80;614.40;;;;;;5033706;28;20321;-58
2022/03/13 11:38:00;;;;;;;;;;;332.80;614.40;;;;;;5033773;28;19913;-59
2022/03/13 11:40:34;;;;;;;;;;;332.80;640.00;;;;;;5033598;28;20331;-58
2022/03/13 11:43:05;;;;;;;;;;;332.80;640.00;;;;;;5033549;28;20426;-58
2022/03/13 11:45:35;;;;;;;;;;;332.80;640.00;;;;;;5033674;28;19909;-58
2022/03/13 11:48:09;;;;;;;;;;;308.10;614.40;;;;;;5033836;28;19909;-61
2022/03/13 11:50:47;;;;;;;;;;;308.10;614.40;;;;;;5033380;28;20401;-58
2022/03/13 11:53:16;;;;;;;;;;;308.10;614.40;;;;;;5033761;28;19909;-61
2022/03/13 11:55:57;;;;;;;;;;;332.80;640.00;;;;;;5033670;28;19909;-61
2022/03/13 11:58:42;;;;;;;;;;;308.10;614.40;;;;;;5026502;28;20268;-61
2022/03/13 12:01:08;;;;;;;;;;;308.10;614.40;;;;;;5035236;28;19929;-61
2022/03/13 12:03:34;;;;;;;;;;;308.10;588.80;;;;;;5035425;28;19920;-61
2022/03/13 12:06:00;;;;;;;;;;;308.10;588.80;;;;;;5035395;28;19932;-61
2022/03/13 12:08:57;;;;;;;;;;;308.10;588.80;;;;;;5035615;28;20256;-61
2022/03/13 12:11:45;;;;;;;;;;;308.10;588.80;;;;;;4964640;28;20004;-63
2022/03/13 12:14:12;;;;;;;;;;;308.10;588.80;;;;;;4965501;28;20014;-62
2022/03/13 12:16:39;;;;;;;;;;;308.10;588.80;;;;;;4972453;28;19965;-58
2022/03/13 12:19:05;;;;;;;;;;;332.80;588.80;;;;;;4975399;28;19910;-59
2022/03/13 12:21:31;;;;;;;;;;;332.80;588.80;;;;;;4975210;28;19925;-62
2022/03/13 12:24:15;;;;;;;;;;;332.80;563.20;;;;;;4975632;28;19914;-61
2022/03/13 12:26:44;;;;;;;;;;;332.80;588.80;;;;;;4975601;28;20413;-60
2022/03/13 12:29:12;;;;;;;;;;;332.80;588.80;;;;;;4975375;28;19910;-58
2022/03/13 12:31:40;;;;;;;;;;;332.80;588.80;;;;;;4967320;28;19915;-59
2022/03/13 12:34:05;;;;;;;;;;;308.10;563.20;;;;;;4968329;28;20404;-61
2022/03/13 12:36:41;;;;;;;;;;;308.10;563.20;;;;;;4955620;29;19918;-59
2022/03/13 12:39:11;;;;;;;;;;;308.10;563.20;;;;;;4955848;29;19966;-61
2022/03/13 12:41:43;;;;;;;;;;;332.80;563.20;;;;;;4962420;28;19929;-58
2022/03/13 12:44:12;;;;;;;;;;;332.80;588.80;;;;;;4965339;28;19923;-58
2022/03/13 12:46:38;;;;;;;;;;;332.80;563.20;;;;;;4993156;28;19921;-60
2022/03/13 12:49:05;;;;;;;;;;;332.90;588.80;;;;;;5035152;28;19913;-61
2022/03/13 12:51:35;;;;;;;;;;;333.00;588.80;;;;;;5035650;28;19997;-58
2022/03/13 12:54:04;;;;;;;;;;;332.90;563.20;;;;;;5036008;28;19920;-59
2022/03/13 12:56:30;;;;;;;;;;;332.90;563.20;;;;;;5035973;28;20294;-59
2022/03/13 12:58:57;;;;;;;;;;;332.90;563.20;;;;;;5035692;28;19916;-59
2022/03/13 13:01:23;;;;;;;;;;;332.80;563.20;;;;;;5035615;28;19917;-58
2022/03/13 13:03:52;;;;;;;;;;;332.90;588.80;;;;;;5035615;28;20313;-62
2022/03/13 13:06:40;;;;;;;;;;;332.80;588.80;;;;;;5035308;28;19913;-61
2022/03/13 13:09:05;;;;;;;;;;;332.80;563.20;;;;;;5035872;28;20283;-58
2022/03/13 13:11:33;;;;;;;;;;;332.80;588.80;;;;;;5034968;28;19909;-62
2022/03/13 13:14:02;;;;;;;;;;;332.80;563.20;;;;;;5034770;28;19913;-58
2022/03/13 13:16:31;;;;;;;;;;;332.90;563.20;;;;;;5035430;28;19913;-60
2022/03/13 13:18:57;;;;;;;;;;;333.00;563.20;;;;;;5035476;28;19916;-61
2022/03/13 13:21:33;;;;;;;;;;;333.10;563.20;;;;;;5035149;28;19924;-61
2022/03/13 13:23:59;;;;;;;;;;;333.00;563.20;;;;;;5034143;28;19917;-59
2022/03/13 13:26:40;;;;;;;;;;;333.00;537.60;;;;;;5034242;28;19914;-61
2022/03/13 13:29:06;;;;;;;;;;;333.00;563.20;;;;;;5035080;28;19955;-60
2022/03/13 13:31:32;;;;;;;;;;;333.00;563.20;;;;;;5034859;28;19920;-58
2022/03/13 13:33:58;;;;;;;;;;;333.00;537.60;;;;;;5031959;28;19909;-60
2022/03/13 13:36:23;;;;;;;;;;;333.00;563.20;;;;;;5034104;28;20343;-62
2022/03/13 13:39:03;;;;;;;;;;;333.00;537.60;;;;;;5035098;28;19920;-62
2022/03/13 13:41:29;;;;;;;;;;;333.00;537.60;;;;;;5035230;28;19913;-61
2022/03/13 13:43:55;;;;;;;;;;;332.90;537.60;;;;;;5034418;28;19997;-62
2022/03/13 13:46:28;;;;;;;;;;;332.90;563.20;;;;;;5035029;28;19952;-59
2022/03/13 13:48:54;;;;;;;;;;;332.90;537.60;;;;;;5035172;28;19909;-58
2022/03/13 13:51:21;;;;;;;;;;;332.90;537.60;;;;;;5034735;28;20243;-58